sensor_id;sensor_type;location;lat;lon;timestamp;pressure;altitude;pressure_sealevel;temperature;humidity
7802;BME280;3945;48.952;9.506;2023-09-19T00:00:29;97537.94;;;17.69;93.91
7802;BME280;3945;48.952;9.506;2023-09-19T00:02:59;97532.56;;;17.69;94.28
7802;BME280;3945;48.952;9.506;2023-09-19T00:05:27;97532.56;;;17.69;94.54
7802;BME280;3945;48.952;9.506;2023-09-19T00:07:54;97535.25;;;17.69;94.41
7802;BME280;3945;48.952;9.506;2023-09-19T00:10:23;97537.13;;;17.68;94.70
7802;BME280;3945;48.952;9.506;2023-09-19T00:12:50;97536.06;;;17.69;94.86
7802;BME280;3945;48.952;9.506;2023-09-19T00:15:17;97537.13;;;17.68;95.21
7802;BME280;3945;48.952;9.506;2023-09-19T00:17:45;97542.22;;;17.70;95.21
7802;BME280;3945;48.952;9.506;2023-09-19T00:20:12;97545.13;;;17.73;94.83
7802;BME280;3945;48.952;9.506;2023-09-19T00:22:42;97550.72;;;17.77;95.02
7802;BME280;3945;48.952;9.506;2023-09-19T00:25:08;97545.84;;;17.79;92.66
7802;BME280;3945;48.952;9.506;2023-09-19T00:27:37;97557.09;;;17.81;92.71
7802;BME280;3945;48.952;9.506;2023-09-19T00:30:06;97560.88;;;17.80;92.87
7802;BME280;3945;48.952;9.506;2023-09-19T00:32:39;97566.25;;;17.80;92.65
7802;BME280;3945;48.952;9.506;2023-09-19T00:35:06;97572.25;;;17.77;93.04
7802;BME280;3945;48.952;9.506;2023-09-19T00:37:33;97569.06;;;17.75;93.58
7802;BME280;3945;48.952;9.506;2023-09-19T00:40:00;97570.44;;;17.72;94.62
7802;BME280;3945;48.952;9.506;2023-09-19T00:42:30;97564.56;;;17.70;95.69
7802;BME280;3945;48.952;9.506;2023-09-19T00:44:56;97572.94;;;17.69;96.01
7802;BME280;3945;48.952;9.506;2023-09-19T00:47:23;97574.03;;;17.68;96.39
7802;BME280;3945;48.952;9.506;2023-09-19T00:49:50;97571.31;;;17.68;96.45
7802;BME280;3945;48.952;9.506;2023-09-19T00:52:17;97565.38;;;17.71;96.44
7802;BME280;3945;48.952;9.506;2023-09-19T00:54:45;97569.66;;;17.72;94.82
7802;BME280;3945;48.952;9.506;2023-09-19T00:57:13;97570.16;;;17.74;94.51
7802;BME280;3945;48.952;9.506;2023-09-19T00:59:40;97579.63;;;17.71;94.48
7802;BME280;3945;48.952;9.506;2023-09-19T01:02:07;97579.91;;;17.70;95.40
7802;BME280;3945;48.952;9.506;2023-09-19T01:04:33;97580.19;;;17.68;95.95
7802;BME280;3945;48.952;9.506;2023-09-19T01:07:00;97578.31;;;17.69;95.82
7802;BME280;3945;48.952;9.506;2023-09-19T01:09:26;97577.50;;;17.68;95.86
7802;BME280;3945;48.952;9.506;2023-09-19T01:11:53;97578.31;;;17.69;96.23
7802;BME280;3945;48.952;9.506;2023-09-19T01:14:29;97573.72;;;17.69;96.46
7802;BME280;3945;48.952;9.506;2023-09-19T01:17:00;97575.63;;;17.69;96.23
7802;BME280;3945;48.952;9.506;2023-09-19T01:19:36;97577.81;;;17.67;96.12
7802;BME280;3945;48.952;9.506;2023-09-19T01:22:12;97580.50;;;17.67;96.20
7802;BME280;3945;48.952;9.506;2023-09-19T01:24:52;97586.69;;;17.67;96.09
7802;BME280;3945;48.952;9.506;2023-09-19T01:27:25;97587.47;;;17.68;95.39
7802;BME280;3945;48.952;9.506;2023-09-19T01:30:07;97579.41;;;17.68;95.65
7802;BME280;3945;48.952;9.506;2023-09-19T01:32:34;97585.88;;;17.67;94.50
7802;BME280;3945;48.952;9.506;2023-09-19T01:35:03;97585.88;;;17.67;93.99
7802;BME280;3945;48.952;9.506;2023-09-19T01:37:30;97593.16;;;17.66;94.36
7802;BME280;3945;48.952;9.506;2023-09-19T01:39:57;97587.28;;;17.64;93.66
7802;BME280;3945;48.952;9.506;2023-09-19T01:42:35;97587.56;;;17.63;94.20
7802;BME280;3945;48.952;9.506;2023-09-19T01:45:06;97593.47;;;17.65;94.10
7802;BME280;3945;48.952;9.506;2023-09-19T01:47:41;97589.47;;;17.62;94.30
7802;BME280;3945;48.952;9.506;2023-09-19T01:50:13;97595.94;;;17.61;94.56
7802;BME280;3945;48.952;9.506;2023-09-19T01:52:45;97594.28;;;17.60;94.82
7802;BME280;3945;48.952;9.506;2023-09-19T01:55:13;97593.50;;;17.60;94.66
7802;BME280;3945;48.952;9.506;2023-09-19T01:57:45;97605.34;;;17.58;94.57
7802;BME280;3945;48.952;9.506;2023-09-19T02:00:14;97593.00;;;17.58;94.42
7802;BME280;3945;48.952;9.506;2023-09-19T02:02:45;97598.69;;;17.56;94.72
7802;BME280;3945;48.952;9.506;2023-09-19T02:05:13;97601.84;;;17.58;93.91
7802;BME280;3945;48.952;9.506;2023-09-19T02:07:47;97601.84;;;17.58;93.99
7802;BME280;3945;48.952;9.506;2023-09-19T02:10:14;97596.47;;;17.58;94.16
7802;BME280;3945;48.952;9.506;2023-09-19T02:12:40;97609.44;;;17.56;93.82
7802;BME280;3945;48.952;9.506;2023-09-19T02:15:07;97604.06;;;17.56;94.21
7802;BME280;3945;48.952;9.506;2023-09-19T02:17:34;97604.34;;;17.54;93.95
7802;BME280;3945;48.952;9.506;2023-09-19T02:20:01;97609.72;;;17.54;94.07
7802;BME280;3945;48.952;9.506;2023-09-19T02:22:35;97613.50;;;17.53;94.18
7802;BME280;3945;48.952;9.506;2023-09-19T02:25:02;97617.00;;;17.54;94.42
7802;BME280;3945;48.952;9.506;2023-09-19T02:27:30;97617.00;;;17.54;94.37
7802;BME280;3945;48.952;9.506;2023-09-19T02:29:56;97610.03;;;17.53;94.54
7802;BME280;3945;48.952;9.506;2023-09-19T02:32:23;97611.09;;;17.52;94.17
7802;BME280;3945;48.952;9.506;2023-09-19T02:34:49;97619.50;;;17.50;93.45
7802;BME280;3945;48.952;9.506;2023-09-19T02:37:18;97625.16;;;17.49;93.79
7802;BME280;3945;48.952;9.506;2023-09-19T02:39:44;97624.34;;;17.48;93.78
7802;BME280;3945;48.952;9.506;2023-09-19T02:42:11;97620.63;;;17.44;93.76
7802;BME280;3945;48.952;9.506;2023-09-19T02:44:37;97617.47;;;17.42;93.74
7802;BME280;3945;48.952;9.506;2023-09-19T02:47:05;97616.06;;;17.45;93.93
7802;BME280;3945;48.952;9.506;2023-09-19T02:49:31;97630.91;;;17.42;94.31
7802;BME280;3945;48.952;9.506;2023-09-19T02:51:58;97624.72;;;17.42;94.21
7802;BME280;3945;48.952;9.506;2023-09-19T02:54:26;97631.19;;;17.41;94.27
7802;BME280;3945;48.952;9.506;2023-09-19T02:56:53;97626.91;;;17.40;94.38
7802;BME280;3945;48.952;9.506;2023-09-19T02:59:19;97636.59;;;17.41;94.48
7802;BME280;3945;48.952;9.506;2023-09-19T03:01:46;97637.38;;;17.41;94.30
7802;BME280;3945;48.952;9.506;2023-09-19T03:04:13;97633.09;;;17.40;94.17
7802;BME280;3945;48.952;9.506;2023-09-19T03:06:44;97635.78;;;17.40;93.93
7802;BME280;3945;48.952;9.506;2023-09-19T03:09:11;97641.97;;;17.41;93.05
7802;BME280;3945;48.952;9.506;2023-09-19T03:11:40;97639.28;;;17.41;93.31
7802;BME280;3945;48.952;9.506;2023-09-19T03:14:07;97641.16;;;17.40;93.36
7802;BME280;3945;48.952;9.506;2023-09-19T03:16:34;97636.34;;;17.37;92.97
7802;BME280;3945;48.952;9.506;2023-09-19T03:19:02;97640.44;;;17.35;92.74
7802;BME280;3945;48.952;9.506;2023-09-19T03:21:28;97649.88;;;17.32;93.34
7802;BME280;3945;48.952;9.506;2023-09-19T03:23:55;97650.97;;;17.31;93.80
7802;BME280;3945;48.952;9.506;2023-09-19T03:26:22;97646.47;;;17.27;94.08
7802;BME280;3945;48.952;9.506;2023-09-19T03:28:49;97645.06;;;17.29;94.21
7802;BME280;3945;48.952;9.506;2023-09-19T03:31:16;97655.06;;;17.29;94.02
7802;BME280;3945;48.952;9.506;2023-09-19T03:33:42;97645.06;;;17.29;94.31
7802;BME280;3945;48.952;9.506;2023-09-19T03:36:09;97637.00;;;17.29;94.65
7802;BME280;3945;48.952;9.506;2023-09-19T03:38:35;97644.50;;;17.32;94.52
7802;BME280;3945;48.952;9.506;2023-09-19T03:41:01;97635.63;;;17.32;94.28
7802;BME280;3945;48.952;9.506;2023-09-19T03:43:28;97645.59;;;17.31;94.29
7802;BME280;3945;48.952;9.506;2023-09-19T03:45:56;97642.38;;;17.29;93.69
7802;BME280;3945;48.952;9.506;2023-09-19T03:48:23;97648.06;;;17.28;93.88
7802;BME280;3945;48.952;9.506;2023-09-19T03:50:49;97645.66;;;17.26;94.22
7802;BME280;3945;48.952;9.506;2023-09-19T03:53:16;97643.78;;;17.27;94.15
7802;BME280;3945;48.952;9.506;2023-09-19T03:55:44;97651.03;;;17.26;93.91
7802;BME280;3945;48.952;9.506;2023-09-19T03:58:10;97650.25;;;17.26;94.31
7802;BME280;3945;48.952;9.506;2023-09-19T04:00:36;97652.38;;;17.29;94.37
7802;BME280;3945;48.952;9.506;2023-09-19T04:03:04;97653.94;;;17.30;94.36
7802;BME280;3945;48.952;9.506;2023-09-19T04:05:32;97647.75;;;17.29;94.35
7802;BME280;3945;48.952;9.506;2023-09-19T04:07:59;97648.28;;;17.31;94.14
7802;BME280;3945;48.952;9.506;2023-09-19T04:10:25;97652.84;;;17.31;94.04
7802;BME280;3945;48.952;9.506;2023-09-19T04:12:52;97653.13;;;17.29;93.61
7802;BME280;3945;48.952;9.506;2023-09-19T04:15:19;97652.06;;;17.30;93.82
7802;BME280;3945;48.952;9.506;2023-09-19T04:17:48;97660.13;;;17.30;93.74
7802;BME280;3945;48.952;9.506;2023-09-19T04:20:15;97663.91;;;17.29;94.15
7802;BME280;3945;48.952;9.506;2023-09-19T04:22:43;97673.88;;;17.29;93.85
7802;BME280;3945;48.952;9.506;2023-09-19T04:25:09;97663.63;;;17.31;93.97
7802;BME280;3945;48.952;9.506;2023-09-19T04:27:35;97662.00;;;17.30;93.78
7802;BME280;3945;48.952;9.506;2023-09-19T04:30:02;97667.09;;;17.31;93.48
7802;BME280;3945;48.952;9.506;2023-09-19T04:32:35;97671.19;;;17.29;93.70
7802;BME280;3945;48.952;9.506;2023-09-19T04:35:03;97673.56;;;17.30;93.54
7802;BME280;3945;48.952;9.506;2023-09-19T04:37:32;97677.88;;;17.31;93.78
7802;BME280;3945;48.952;9.506;2023-09-19T04:40:00;97690.50;;;17.31;93.70
7802;BME280;3945;48.952;9.506;2023-09-19T04:42:29;97690.78;;;17.29;93.31
7802;BME280;3945;48.952;9.506;2023-09-19T04:44:55;97695.69;;;17.27;94.45
7802;BME280;3945;48.952;9.506;2023-09-19T04:47:22;97698.72;;;17.21;95.16
7802;BME280;3945;48.952;9.506;2023-09-19T04:49:48;97696.88;;;17.16;96.07
7802;BME280;3945;48.952;9.506;2023-09-19T04:52:14;97691.03;;;17.14;96.76
7802;BME280;3945;48.952;9.506;2023-09-19T04:54:42;97699.66;;;17.11;96.96
7802;BME280;3945;48.952;9.506;2023-09-19T04:57:10;97697.53;;;17.08;97.42
7802;BME280;3945;48.952;9.506;2023-09-19T04:59:36;97692.47;;;17.06;97.21
7802;BME280;3945;48.952;9.506;2023-09-19T05:02:03;97702.69;;;17.04;96.95
7802;BME280;3945;48.952;9.506;2023-09-19T05:04:29;97699.28;;;16.99;96.55
7802;BME280;3945;48.952;9.506;2023-09-19T05:06:55;97694.47;;;16.96;96.70
7802;BME280;3945;48.952;9.506;2023-09-19T05:09:22;97705.28;;;16.91;97.24
7802;BME280;3945;48.952;9.506;2023-09-19T05:11:50;97709.84;;;16.90;96.77
7802;BME280;3945;48.952;9.506;2023-09-19T05:14:16;97714.44;;;16.90;97.24
7802;BME280;3945;48.952;9.506;2023-09-19T05:16:42;97710.94;;;16.89;97.10
7802;BME280;3945;48.952;9.506;2023-09-19T05:19:09;97712.25;;;16.92;97.27
7802;BME280;3945;48.952;9.506;2023-09-19T05:21:36;97714.09;;;16.96;97.37
7802;BME280;3945;48.952;9.506;2023-09-19T05:24:04;97726.16;;;16.99;97.42
7802;BME280;3945;48.952;9.506;2023-09-19T05:26:31;97723.97;;;17.01;97.77
7802;BME280;3945;48.952;9.506;2023-09-19T05:28:59;97729.34;;;17.01;97.98
7802;BME280;3945;48.952;9.506;2023-09-19T05:31:26;97734.72;;;17.01;97.66
7802;BME280;3945;48.952;9.506;2023-09-19T05:33:52;97726.97;;;16.99;98.39
7802;BME280;3945;48.952;9.506;2023-09-19T05:36:19;97728.09;;;16.93;99.32
7802;BME280;3945;48.952;9.506;2023-09-19T05:38:46;97727.63;;;16.86;100.00
7802;BME280;3945;48.952;9.506;2023-09-19T05:41:15;97741.13;;;16.81;100.00
7802;BME280;3945;48.952;9.506;2023-09-19T05:43:43;97740.38;;;16.75;100.00
7802;BME280;3945;48.952;9.506;2023-09-19T05:46:10;97747.13;;;16.73;100.00
7802;BME280;3945;48.952;9.506;2023-09-19T05:48:37;97745.81;;;16.70;100.00
7802;BME280;3945;48.952;9.506;2023-09-19T05:51:04;97750.69;;;16.68;100.00
7802;BME280;3945;48.952;9.506;2023-09-19T05:53:31;97754.16;;;16.69;100.00
7802;BME280;3945;48.952;9.506;2023-09-19T05:55:57;97761.69;;;16.67;100.00
7802;BME280;3945;48.952;9.506;2023-09-19T05:58:26;97778.69;;;16.62;100.00
7802;BME280;3945;48.952;9.506;2023-09-19T06:00:52;97776.53;;;16.59;100.00
7802;BME280;3945;48.952;9.506;2023-09-19T06:03:20;97773.59;;;16.56;100.00
7802;BME280;3945;48.952;9.506;2023-09-19T06:05:46;97781.94;;;16.54;100.00
7802;BME280;3945;48.952;9.506;2023-09-19T06:08:14;97770.66;;;16.52;100.00
7802;BME280;3945;48.952;9.506;2023-09-19T06:10:40;97776.63;;;16.49;100.00
7802;BME280;3945;48.952;9.506;2023-09-19T06:13:07;97775.03;;;16.48;100.00
7802;BME280;3945;48.952;9.506;2023-09-19T06:15:34;97783.09;;;16.48;100.00
7802;BME280;3945;48.952;9.506;2023-09-19T06:18:01;97792.44;;;16.51;100.00
7802;BME280;3945;48.952;9.506;2023-09-19T06:20:31;97794.03;;;16.52;100.00
7802;BME280;3945;48.952;9.506;2023-09-19T06:22:58;97794.31;;;16.55;100.00
7802;BME280;3945;48.952;9.506;2023-09-19T06:25:24;97799.09;;;16.58;100.00
7802;BME280;3945;48.952;9.506;2023-09-19T06:27:51;97799.09;;;16.58;100.00
7802;BME280;3945;48.952;9.506;2023-09-19T06:30:18;97803.94;;;16.61;100.00
7802;BME280;3945;48.952;9.506;2023-09-19T06:32:45;97800.97;;;16.63;100.00
7802;BME280;3945;48.952;9.506;2023-09-19T06:35:11;97801.78;;;16.63;100.00
7802;BME280;3945;48.952;9.506;2023-09-19T06:37:40;97799.91;;;16.64;100.00
7802;BME280;3945;48.952;9.506;2023-09-19T06:40:07;97788.34;;;16.63;100.00
7802;BME280;3945;48.952;9.506;2023-09-19T06:42:38;97801.50;;;16.60;100.00
7802;BME280;3945;48.952;9.506;2023-09-19T06:45:05;97805.81;;;16.61;100.00
7802;BME280;3945;48.952;9.506;2023-09-19T06:47:31;97803.94;;;16.61;100.00
7802;BME280;3945;48.952;9.506;2023-09-19T06:49:58;97808.50;;;16.61;100.00
7802;BME280;3945;48.952;9.506;2023-09-19T06:52:24;97815.50;;;16.62;100.00
7802;BME280;3945;48.952;9.506;2023-09-19T06:54:52;97812.25;;;16.60;100.00
7802;BME280;3945;48.952;9.506;2023-09-19T06:57:18;97820.31;;;16.60;100.00
7802;BME280;3945;48.952;9.506;2023-09-19T06:59:45;97816.56;;;16.61;100.00
7802;BME280;3945;48.952;9.506;2023-09-19T07:02:11;97826.53;;;16.60;100.00
7802;BME280;3945;48.952;9.506;2023-09-19T07:04:38;97828.34;;;16.65;100.00
7802;BME280;3945;48.952;9.506;2023-09-19T07:07:05;97830.72;;;16.71;100.00
7802;BME280;3945;48.952;9.506;2023-09-19T07:09:33;97826.94;;;16.72;100.00
7802;BME280;3945;48.952;9.506;2023-09-19T07:12:01;97833.31;;;16.82;100.00
7802;BME280;3945;48.952;9.506;2023-09-19T07:14:27;97830.22;;;16.93;99.15
7802;BME280;3945;48.952;9.506;2023-09-19T07:16:55;97831.47;;;17.06;98.77
7802;BME280;3945;48.952;9.506;2023-09-19T07:19:21;97830.72;;;17.24;97.82
7802;BME280;3945;48.952;9.506;2023-09-19T07:21:48;97832.38;;;17.44;97.84
7802;BME280;3945;48.952;9.506;2023-09-19T07:24:15;97828.97;;;17.62;96.75
7802;BME280;3945;48.952;9.506;2023-09-19T07:26:41;97839.31;;;17.74;95.10
7802;BME280;3945;48.952;9.506;2023-09-19T07:29:09;97839.75;;;17.81;94.15
7802;BME280;3945;48.952;9.506;2023-09-19T07:31:36;97845.53;;;17.93;94.52
7802;BME280;3945;48.952;9.506;2023-09-19T07:34:02;97849.59;;;18.09;94.34
7802;BME280;3945;48.952;9.506;2023-09-19T07:36:29;97861.84;;;18.20;93.56
7802;BME280;3945;48.952;9.506;2023-09-19T07:38:55;97863.75;;;18.20;92.73
7802;BME280;3945;48.952;9.506;2023-09-19T07:41:23;97858.94;;;18.17;92.88
7802;BME280;3945;48.952;9.506;2023-09-19T07:43:50;97866.00;;;18.13;92.91
7802;BME280;3945;48.952;9.506;2023-09-19T07:46:18;97861.34;;;18.00;92.47
7802;BME280;3945;48.952;9.506;2023-09-19T07:48:46;97870.06;;;17.91;92.30
7802;BME280;3945;48.952;9.506;2023-09-19T07:51:13;97867.75;;;17.80;91.45
7802;BME280;3945;48.952;9.506;2023-09-19T07:53:41;97876.19;;;17.73;91.73
7802;BME280;3945;48.952;9.506;2023-09-19T07:56:08;97877.28;;;17.72;92.40
7802;BME280;3945;48.952;9.506;2023-09-19T07:58:34;97884.69;;;17.85;93.13
7802;BME280;3945;48.952;9.506;2023-09-19T08:01:02;97874.56;;;17.96;91.80
7802;BME280;3945;48.952;9.506;2023-09-19T08:03:30;97882.28;;;18.03;91.59
7802;BME280;3945;48.952;9.506;2023-09-19T08:05:57;97881.28;;;18.17;91.54
7802;BME280;3945;48.952;9.506;2023-09-19T08:08:24;97885.13;;;18.30;89.41
7802;BME280;3945;48.952;9.506;2023-09-19T08:10:52;97896.50;;;18.27;87.65
7802;BME280;3945;48.952;9.506;2023-09-19T08:13:18;97897.50;;;18.31;88.88
7802;BME280;3945;48.952;9.506;2023-09-19T08:15:46;97900.00;;;18.27;87.14
7802;BME280;3945;48.952;9.506;2023-09-19T08:18:13;97889.16;;;18.32;86.78
7802;BME280;3945;48.952;9.506;2023-09-19T08:20:40;97906.63;;;18.35;86.82
7802;BME280;3945;48.952;9.506;2023-09-19T08:23:07;97902.47;;;18.43;86.81
7802;BME280;3945;48.952;9.506;2023-09-19T08:25:34;97907.72;;;18.53;88.48
7802;BME280;3945;48.952;9.506;2023-09-19T08:28:00;97909.50;;;18.62;88.04
7802;BME280;3945;48.952;9.506;2023-09-19T08:30:28;97900.41;;;18.58;85.46
7802;BME280;3945;48.952;9.506;2023-09-19T08:32:56;97903.38;;;18.57;85.03
7802;BME280;3945;48.952;9.506;2023-09-19T08:35:23;97899.78;;;18.61;85.19
7802;BME280;3945;48.952;9.506;2023-09-19T08:37:51;97903.53;;;18.65;83.95
7802;BME280;3945;48.952;9.506;2023-09-19T08:40:17;97903.28;;;18.62;83.72
7802;BME280;3945;48.952;9.506;2023-09-19T08:42:47;97903.28;;;18.62;83.32
7802;BME280;3945;48.952;9.506;2023-09-19T08:45:13;97901.69;;;18.61;82.21
7802;BME280;3945;48.952;9.506;2023-09-19T08:47:42;97906.94;;;18.71;82.16
7802;BME280;3945;48.952;9.506;2023-09-19T08:50:13;97907.06;;;18.80;82.36
7802;BME280;3945;48.952;9.506;2023-09-19T08:52:43;97917.97;;;18.88;81.54
7802;BME280;3945;48.952;9.506;2023-09-19T08:55:12;97911.00;;;18.87;78.38
7802;BME280;3945;48.952;9.506;2023-09-19T08:57:45;97914.94;;;18.76;78.35
7802;BME280;3945;48.952;9.506;2023-09-19T09:00:14;97919.75;;;18.79;78.77
7802;BME280;3945;48.952;9.506;2023-09-19T09:02:42;97919.16;;;18.82;79.89
7802;BME280;3945;48.952;9.506;2023-09-19T09:05:09;97920.59;;;18.93;81.79
7802;BME280;3945;48.952;9.506;2023-09-19T09:07:35;97931.03;;;19.14;78.24
7802;BME280;3945;48.952;9.506;2023-09-19T09:10:02;97929.47;;;19.26;77.49
7802;BME280;3945;48.952;9.506;2023-09-19T09:12:30;97931.69;;;19.38;76.63
7802;BME280;3945;48.952;9.506;2023-09-19T09:14:56;97928.25;;;19.51;77.35
7802;BME280;3945;48.952;9.506;2023-09-19T09:17:23;97940.34;;;19.54;74.28
7802;BME280;3945;48.952;9.506;2023-09-19T09:19:50;97938.91;;;19.42;76.03
7802;BME280;3945;48.952;9.506;2023-09-19T09:22:18;97937.69;;;19.35;75.96
7802;BME280;3945;48.952;9.506;2023-09-19T09:24:52;97936.00;;;19.39;75.52
7802;BME280;3945;48.952;9.506;2023-09-19T09:27:20;97931.91;;;19.41;74.87
7802;BME280;3945;48.952;9.506;2023-09-19T09:29:51;97933.69;;;19.46;74.87
7802;BME280;3945;48.952;9.506;2023-09-19T09:32:22;97926.94;;;19.48;75.01
7802;BME280;3945;48.952;9.506;2023-09-19T09:34:50;97933.66;;;19.65;77.11
7802;BME280;3945;48.952;9.506;2023-09-19T09:37:17;97937.28;;;19.87;77.23
7802;BME280;3945;48.952;9.506;2023-09-19T09:39:48;97928.75;;;20.08;77.62
7802;BME280;3945;48.952;9.506;2023-09-19T09:42:19;97929.03;;;20.20;74.18
7802;BME280;3945;48.952;9.506;2023-09-19T09:45:06;97924.31;;;20.25;72.01
7802;BME280;3945;48.952;9.506;2023-09-19T09:47:42;97925.53;;;20.19;70.91
7802;BME280;3945;48.952;9.506;2023-09-19T09:50:22;97922.13;;;20.27;73.05
7802;BME280;3945;48.952;9.506;2023-09-19T09:52:54;97920.03;;;20.38;73.53
7802;BME280;3945;48.952;9.506;2023-09-19T09:55:25;97915.38;;;20.52;73.65
7802;BME280;3945;48.952;9.506;2023-09-19T09:57:58;97913.53;;;20.61;71.60
7802;BME280;3945;48.952;9.506;2023-09-19T10:00:53;97903.28;;;20.72;70.71
7802;BME280;3945;48.952;9.506;2023-09-19T10:03:24;97905.34;;;20.75;69.63
7802;BME280;3945;48.952;9.506;2023-09-19T10:05:57;97906.50;;;20.74;69.29
7802;BME280;3945;48.952;9.506;2023-09-19T10:08:25;97902.72;;;20.84;65.87
7802;BME280;3945;48.952;9.506;2023-09-19T10:10:56;97900.09;;;20.92;66.32
7802;BME280;3945;48.952;9.506;2023-09-19T10:13:30;97896.63;;;21.00;66.57
7802;BME280;3945;48.952;9.506;2023-09-19T10:16:00;97899.78;;;21.16;67.05
7802;BME280;3945;48.952;9.506;2023-09-19T10:18:35;97906.97;;;21.21;67.98
7802;BME280;3945;48.952;9.506;2023-09-19T10:21:04;97905.69;;;21.18;68.81
7802;BME280;3945;48.952;9.506;2023-09-19T10:23:32;97916.59;;;21.13;69.04
7802;BME280;3945;48.952;9.506;2023-09-19T10:26:02;97910.63;;;21.16;68.92
7802;BME280;3945;48.952;9.506;2023-09-19T10:28:30;97906.53;;;21.27;69.88
7802;BME280;3945;48.952;9.506;2023-09-19T10:30:56;97905.63;;;21.32;66.23
7802;BME280;3945;48.952;9.506;2023-09-19T10:33:25;97905.31;;;21.42;67.38
7802;BME280;3945;48.952;9.506;2023-09-19T10:35:51;97901.56;;;21.52;67.25
7802;BME280;3945;48.952;9.506;2023-09-19T10:38:22;97903.31;;;21.56;68.70
7802;BME280;3945;48.952;9.506;2023-09-19T10:40:50;97905.41;;;21.59;66.73
7802;BME280;3945;48.952;9.506;2023-09-19T10:43:17;97916.09;;;21.64;66.42
7802;BME280;3945;48.952;9.506;2023-09-19T10:45:44;97912.09;;;21.62;65.85
7802;BME280;3945;48.952;9.506;2023-09-19T10:48:12;97909.22;;;21.58;66.14
7802;BME280;3945;48.952;9.506;2023-09-19T10:50:43;97908.63;;;21.70;67.11
7802;BME280;3945;48.952;9.506;2023-09-19T10:53:11;97909.13;;;21.72;66.23
7802;BME280;3945;48.952;9.506;2023-09-19T10:55:38;97908.81;;;21.73;63.95
7802;BME280;3945;48.952;9.506;2023-09-19T10:58:05;97904.84;;;21.79;63.98
7802;BME280;3945;48.952;9.506;2023-09-19T11:00:51;97906.94;;;21.83;62.12
7802;BME280;3945;48.952;9.506;2023-09-19T11:03:19;97903.97;;;22.01;64.23
7802;BME280;3945;48.952;9.506;2023-09-19T11:06:05;97898.13;;;22.25;64.82
7802;BME280;3945;48.952;9.506;2023-09-19T11:11:48;97905.97;;;22.52;62.35
7802;BME280;3945;48.952;9.506;2023-09-19T11:14:30;97900.22;;;22.71;61.09
7802;BME280;3945;48.952;9.506;2023-09-19T11:22:30;97890.19;;;22.98;56.77
7802;BME280;3945;48.952;9.506;2023-09-19T11:28:27;97884.91;;;22.84;57.09
7802;BME280;3945;48.952;9.506;2023-09-19T11:30:55;97875.00;;;22.88;55.88
7802;BME280;3945;48.952;9.506;2023-09-19T11:33:23;97871.81;;;22.94;58.27
7802;BME280;3945;48.952;9.506;2023-09-19T11:36:00;97874.66;;;22.98;57.47
7802;BME280;3945;48.952;9.506;2023-09-19T11:43:51;97872.13;;;22.41;60.96
7802;BME280;3945;48.952;9.506;2023-09-19T11:46:20;97874.19;;;22.36;60.03
7802;BME280;3945;48.952;9.506;2023-09-19T11:48:47;97877.25;;;22.26;60.08
7802;BME280;3945;48.952;9.506;2023-09-19T11:51:15;97878.97;;;22.13;60.85
7802;BME280;3945;48.952;9.506;2023-09-19T11:53:47;97879.75;;;21.96;60.53
7802;BME280;3945;48.952;9.506;2023-09-19T11:56:15;97877.03;;;22.05;62.25
7802;BME280;3945;48.952;9.506;2023-09-19T11:58:43;97869.56;;;22.28;61.43
7802;BME280;3945;48.952;9.506;2023-09-19T12:01:11;97870.53;;;22.49;59.38
7802;BME280;3945;48.952;9.506;2023-09-19T12:03:46;97872.28;;;22.71;60.20
7802;BME280;3945;48.952;9.506;2023-09-19T12:06:13;97878.72;;;22.75;57.75
7802;BME280;3945;48.952;9.506;2023-09-19T12:08:40;97879.16;;;22.85;58.70
7802;BME280;3945;48.952;9.506;2023-09-19T12:11:11;97873.28;;;22.83;57.52
7802;BME280;3945;48.952;9.506;2023-09-19T12:13:40;97862.22;;;22.97;57.11
7802;BME280;3945;48.952;9.506;2023-09-19T12:16:12;97859.44;;;23.14;56.49
7802;BME280;3945;48.952;9.506;2023-09-19T12:18:40;97862.75;;;23.28;56.97
7802;BME280;3945;48.952;9.506;2023-09-19T12:21:06;97859.41;;;23.31;55.55
7802;BME280;3945;48.952;9.506;2023-09-19T12:23:37;97860.31;;;23.44;56.49
7802;BME280;3945;48.952;9.506;2023-09-19T12:26:06;97859.50;;;23.44;54.26
7802;BME280;3945;48.952;9.506;2023-09-19T12:28:38;97859.50;;;23.44;55.47
7802;BME280;3945;48.952;9.506;2023-09-19T12:31:07;97859.41;;;23.31;55.79
7802;BME280;3945;48.952;9.506;2023-09-19T12:33:35;97856.53;;;23.28;55.45
7802;BME280;3945;48.952;9.506;2023-09-19T12:36:07;97847.84;;;23.43;55.57
7802;BME280;3945;48.952;9.506;2023-09-19T12:38:47;97843.31;;;23.64;56.48
7802;BME280;3945;48.952;9.506;2023-09-19T12:41:14;97843.97;;;23.91;56.85
7802;BME280;3945;48.952;9.506;2023-09-19T12:43:40;97838.72;;;24.06;54.25
7802;BME280;3945;48.952;9.506;2023-09-19T12:46:07;97847.41;;;24.00;53.71
7802;BME280;3945;48.952;9.506;2023-09-19T12:48:34;97848.94;;;23.89;53.13
7802;BME280;3945;48.952;9.506;2023-09-19T12:51:03;97840.25;;;23.66;51.80
7802;BME280;3945;48.952;9.506;2023-09-19T12:53:33;97830.44;;;23.53;52.47
7802;BME280;3945;48.952;9.506;2023-09-19T12:56:03;97831.88;;;23.50;54.05
7802;BME280;3945;48.952;9.506;2023-09-19T12:58:31;97835.16;;;23.26;54.15
7802;BME280;3945;48.952;9.506;2023-09-19T13:00:58;97832.16;;;23.19;54.54
7802;BME280;3945;48.952;9.506;2023-09-19T13:03:27;97832.81;;;23.08;55.92
7802;BME280;3945;48.952;9.506;2023-09-19T13:05:58;97829.88;;;23.21;55.37
7802;BME280;3945;48.952;9.506;2023-09-19T13:08:26;97831.53;;;23.52;54.95
7802;BME280;3945;48.952;9.506;2023-09-19T13:11:07;97825.59;;;23.58;53.62
7802;BME280;3945;48.952;9.506;2023-09-19T13:13:36;97835.53;;;23.54;53.29
7802;BME280;3945;48.952;9.506;2023-09-19T13:16:03;97828.84;;;23.43;53.67
7802;BME280;3945;48.952;9.506;2023-09-19T13:18:33;97826.19;;;23.64;53.35
7802;BME280;3945;48.952;9.506;2023-09-19T13:21:09;97824.16;;;23.90;53.95
7802;BME280;3945;48.952;9.506;2023-09-19T13:23:37;97814.19;;;24.15;56.20
7802;BME280;3945;48.952;9.506;2023-09-19T13:26:03;97814.34;;;24.39;54.22
7802;BME280;3945;48.952;9.506;2023-09-19T13:28:31;97810.47;;;24.61;51.49
7802;BME280;3945;48.952;9.506;2023-09-19T13:30:57;97813.69;;;24.75;52.40
7802;BME280;3945;48.952;9.506;2023-09-19T13:33:23;97810.53;;;24.85;51.48
7802;BME280;3945;48.952;9.506;2023-09-19T13:35:51;97807.22;;;24.80;48.77
7802;BME280;3945;48.952;9.506;2023-09-19T13:38:19;97817.06;;;24.72;51.47
7802;BME280;3945;48.952;9.506;2023-09-19T13:40:47;97806.31;;;24.64;49.99
7802;BME280;3945;48.952;9.506;2023-09-19T13:43:13;97811.38;;;24.65;49.79